Athol, South Dakota
Current Conditions -  °F | °C
As of 8:53 PM on Friday 21 Nov 2014 (Local Time) from KABR Reporting Station
Clear Clear  
Wind Chill: 23°   Ceiling: Unl
Heat Index: 31°   Visibility: 10mi
Dew Point: 26°   Wind: 9mph
Humidity: 82%   Direction: 200°SSW
Pressure: 29.78"   Gusts: NA
Location:  45.027°N, 98.472°W
Report Text: KABR 220253Z AUTO 20008KT 10SM CLR M01/M03 A2978 RMK AO2 SLP103 T10061033 57005
Loading
Personal Weather Stations






























Interactive Weather Map New forecast layout! Learn more

10-Day Weather Forecast

Advertisements
Track Severe Weather on mobile